sensor_id;sensor_type;location;lat;lon;timestamp;P1;durP1;ratioP1;P2;durP2;ratioP2
52458;SDS011;38372;52.902;6.024;2022-08-02T00:01:45;11.07;;;4.00;;
52458;SDS011;38372;52.902;6.024;2022-08-02T00:04:11;11.73;;;4.05;;
52458;SDS011;38372;52.902;6.024;2022-08-02T00:06:37;10.10;;;3.85;;
52458;SDS011;38372;52.902;6.024;2022-08-02T00:09:03;10.50;;;4.40;;
52458;SDS011;38372;52.902;6.024;2022-08-02T00:11:30;9.63;;;3.80;;
52458;SDS011;38372;52.902;6.024;2022-08-02T00:13:56;6.90;;;3.95;;
52458;SDS011;38372;52.902;6.024;2022-08-02T00:16:22;8.77;;;3.45;;
52458;SDS011;38372;52.902;6.024;2022-08-02T00:18:48;9.10;;;3.83;;
52458;SDS011;38372;52.902;6.024;2022-08-02T00:21:14;13.80;;;4.65;;
52458;SDS011;38372;52.902;6.024;2022-08-02T00:23:40;7.75;;;3.85;;
52458;SDS011;38372;52.902;6.024;2022-08-02T00:26:06;7.70;;;3.90;;
52458;SDS011;38372;52.902;6.024;2022-08-02T00:28:32;10.52;;;4.68;;
52458;SDS011;38372;52.902;6.024;2022-08-02T00:30:58;13.93;;;4.20;;
52458;SDS011;38372;52.902;6.024;2022-08-02T00:33:24;11.18;;;4.32;;
52458;SDS011;38372;52.902;6.024;2022-08-02T00:35:50;10.95;;;4.10;;
52458;SDS011;38372;52.902;6.024;2022-08-02T00:38:16;7.40;;;3.80;;
52458;SDS011;38372;52.902;6.024;2022-08-02T00:40:51;7.70;;;4.25;;
52458;SDS011;38372;52.902;6.024;2022-08-02T00:43:18;15.05;;;4.75;;
52458;SDS011;38372;52.902;6.024;2022-08-02T00:45:44;8.00;;;4.32;;
52458;SDS011;38372;52.902;6.024;2022-08-02T00:48:10;10.82;;;4.10;;
52458;SDS011;38372;52.902;6.024;2022-08-02T00:50:37;9.88;;;4.10;;
52458;SDS011;38372;52.902;6.024;2022-08-02T00:53:04;8.48;;;4.05;;
52458;SDS011;38372;52.902;6.024;2022-08-02T00:55:31;13.25;;;4.72;;
52458;SDS011;38372;52.902;6.024;2022-08-02T00:57:57;9.32;;;4.10;;
52458;SDS011;38372;52.902;6.024;2022-08-02T01:00:23;15.95;;;4.90;;
52458;SDS011;38372;52.902;6.024;2022-08-02T01:02:49;14.93;;;5.13;;
52458;SDS011;38372;52.902;6.024;2022-08-02T01:05:15;11.50;;;4.55;;
52458;SDS011;38372;52.902;6.024;2022-08-02T01:07:41;10.00;;;4.88;;
52458;SDS011;38372;52.902;6.024;2022-08-02T01:10:08;9.75;;;4.60;;
52458;SDS011;38372;52.902;6.024;2022-08-02T01:12:34;13.02;;;4.40;;
52458;SDS011;38372;52.902;6.024;2022-08-02T01:15:03;11.60;;;4.63;;
52458;SDS011;38372;52.902;6.024;2022-08-02T01:34:05;12.35;;;4.45;;
52458;SDS011;38372;52.902;6.024;2022-08-02T01:36:41;13.73;;;4.93;;
52458;SDS011;38372;52.902;6.024;2022-08-02T01:39:11;13.02;;;5.18;;
52458;SDS011;38372;52.902;6.024;2022-08-02T01:41:40;11.15;;;4.93;;
52458;SDS011;38372;52.902;6.024;2022-08-02T01:44:07;13.73;;;5.22;;
52458;SDS011;38372;52.902;6.024;2022-08-02T01:46:36;10.32;;;4.72;;
52458;SDS011;38372;52.902;6.024;2022-08-02T01:49:06;11.10;;;4.93;;
52458;SDS011;38372;52.902;6.024;2022-08-02T01:51:39;10.00;;;5.32;;
52458;SDS011;38372;52.902;6.024;2022-08-02T01:54:26;11.68;;;4.57;;
52458;SDS011;38372;52.902;6.024;2022-08-02T01:56:57;10.48;;;4.30;;
52458;SDS011;38372;52.902;6.024;2022-08-02T01:59:25;10.35;;;5.03;;
52458;SDS011;38372;52.902;6.024;2022-08-02T02:01:54;8.15;;;4.65;;
52458;SDS011;38372;52.902;6.024;2022-08-02T02:04:21;10.25;;;4.90;;
52458;SDS011;38372;52.902;6.024;2022-08-02T02:06:48;9.93;;;4.53;;
52458;SDS011;38372;52.902;6.024;2022-08-02T02:09:16;10.70;;;4.43;;
52458;SDS011;38372;52.902;6.024;2022-08-02T02:11:43;12.05;;;4.25;;
52458;SDS011;38372;52.902;6.024;2022-08-02T02:14:11;10.40;;;4.38;;
52458;SDS011;38372;52.902;6.024;2022-08-02T02:16:39;12.25;;;4.53;;
52458;SDS011;38372;52.902;6.024;2022-08-02T02:19:08;16.58;;;4.65;;
52458;SDS011;38372;52.902;6.024;2022-08-02T02:21:36;8.73;;;4.22;;
52458;SDS011;38372;52.902;6.024;2022-08-02T02:24:03;8.63;;;4.43;;
52458;SDS011;38372;52.902;6.024;2022-08-02T02:26:29;6.82;;;4.30;;
52458;SDS011;38372;52.902;6.024;2022-08-02T02:28:57;10.07;;;5.35;;
52458;SDS011;38372;52.902;6.024;2022-08-02T02:31:31;9.73;;;4.53;;
52458;SDS011;38372;52.902;6.024;2022-08-02T02:34:04;11.48;;;4.93;;
52458;SDS011;38372;52.902;6.024;2022-08-02T02:36:36;9.02;;;5.00;;
52458;SDS011;38372;52.902;6.024;2022-08-02T02:39:05;14.85;;;5.95;;
52458;SDS011;38372;52.902;6.024;2022-08-02T02:41:36;14.33;;;5.60;;
52458;SDS011;38372;52.902;6.024;2022-08-02T02:44:02;11.88;;;5.07;;
52458;SDS011;38372;52.902;6.024;2022-08-02T02:46:30;10.23;;;5.00;;
52458;SDS011;38372;52.902;6.024;2022-08-02T02:48:58;11.15;;;4.63;;
52458;SDS011;38372;52.902;6.024;2022-08-02T02:51:25;12.98;;;5.30;;
52458;SDS011;38372;52.902;6.024;2022-08-02T02:53:52;8.85;;;4.75;;
52458;SDS011;38372;52.902;6.024;2022-08-02T02:56:19;12.50;;;5.57;;
52458;SDS011;38372;52.902;6.024;2022-08-02T02:58:46;8.38;;;4.38;;
52458;SDS011;38372;52.902;6.024;2022-08-02T03:01:13;11.18;;;4.97;;
52458;SDS011;38372;52.902;6.024;2022-08-02T03:04:01;7.35;;;4.80;;
52458;SDS011;38372;52.902;6.024;2022-08-02T03:06:30;14.60;;;5.47;;
52458;SDS011;38372;52.902;6.024;2022-08-02T03:08:58;12.48;;;4.85;;
52458;SDS011;38372;52.902;6.024;2022-08-02T03:11:24;10.43;;;4.75;;
52458;SDS011;38372;52.902;6.024;2022-08-02T03:14:02;9.40;;;4.55;;
52458;SDS011;38372;52.902;6.024;2022-08-02T03:16:29;12.25;;;4.55;;
52458;SDS011;38372;52.902;6.024;2022-08-02T03:18:56;10.48;;;4.50;;
52458;SDS011;38372;52.902;6.024;2022-08-02T03:21:26;9.38;;;4.75;;
52458;SDS011;38372;52.902;6.024;2022-08-02T03:23:51;7.45;;;4.38;;
52458;SDS011;38372;52.902;6.024;2022-08-02T03:26:17;10.07;;;4.80;;
52458;SDS011;38372;52.902;6.024;2022-08-02T03:28:43;9.65;;;4.72;;
52458;SDS011;38372;52.902;6.024;2022-08-02T03:31:09;7.50;;;4.82;;
52458;SDS011;38372;52.902;6.024;2022-08-02T03:33:35;10.63;;;5.05;;
52458;SDS011;38372;52.902;6.024;2022-08-02T03:36:10;11.07;;;5.57;;
52458;SDS011;38372;52.902;6.024;2022-08-02T03:38:37;13.20;;;5.78;;
52458;SDS011;38372;52.902;6.024;2022-08-02T03:41:04;8.13;;;5.47;;
52458;SDS011;38372;52.902;6.024;2022-08-02T03:43:31;7.00;;;5.13;;
52458;SDS011;38372;52.902;6.024;2022-08-02T03:45:57;11.75;;;5.25;;
52458;SDS011;38372;52.902;6.024;2022-08-02T03:48:26;18.17;;;5.55;;
52458;SDS011;38372;52.902;6.024;2022-08-02T03:50:53;10.25;;;5.80;;
52458;SDS011;38372;52.902;6.024;2022-08-02T03:53:20;13.77;;;5.30;;
52458;SDS011;38372;52.902;6.024;2022-08-02T03:55:47;11.18;;;5.22;;
52458;SDS011;38372;52.902;6.024;2022-08-02T03:58:21;9.63;;;5.97;;
52458;SDS011;38372;52.902;6.024;2022-08-02T04:00:48;12.80;;;5.68;;
52458;SDS011;38372;52.902;6.024;2022-08-02T04:03:14;9.63;;;6.20;;
52458;SDS011;38372;52.902;6.024;2022-08-02T04:05:40;12.63;;;6.38;;
52458;SDS011;38372;52.902;6.024;2022-08-02T04:08:06;14.40;;;5.70;;
52458;SDS011;38372;52.902;6.024;2022-08-02T04:10:32;13.40;;;6.03;;
52458;SDS011;38372;52.902;6.024;2022-08-02T04:13:19;12.50;;;6.03;;
52458;SDS011;38372;52.902;6.024;2022-08-02T04:15:48;14.32;;;6.97;;
52458;SDS011;38372;52.902;6.024;2022-08-02T04:18:18;14.27;;;5.95;;
52458;SDS011;38372;52.902;6.024;2022-08-02T04:20:49;11.60;;;5.35;;
52458;SDS011;38372;52.902;6.024;2022-08-02T04:23:17;12.85;;;6.05;;
52458;SDS011;38372;52.902;6.024;2022-08-02T04:25:43;14.02;;;5.50;;
52458;SDS011;38372;52.902;6.024;2022-08-02T04:28:11;12.00;;;5.72;;
52458;SDS011;38372;52.902;6.024;2022-08-02T04:30:40;13.05;;;5.10;;
52458;SDS011;38372;52.902;6.024;2022-08-02T04:33:06;11.00;;;5.80;;
52458;SDS011;38372;52.902;6.024;2022-08-02T04:35:32;12.15;;;5.43;;
52458;SDS011;38372;52.902;6.024;2022-08-02T04:37:58;12.38;;;6.20;;
52458;SDS011;38372;52.902;6.024;2022-08-02T04:40:25;11.68;;;5.13;;
52458;SDS011;38372;52.902;6.024;2022-08-02T04:42:51;11.48;;;5.53;;
52458;SDS011;38372;52.902;6.024;2022-08-02T04:45:17;14.32;;;5.80;;
52458;SDS011;38372;52.902;6.024;2022-08-02T04:47:43;11.60;;;5.68;;
52458;SDS011;38372;52.902;6.024;2022-08-02T04:50:09;10.52;;;5.38;;
52458;SDS011;38372;52.902;6.024;2022-08-02T04:52:35;16.45;;;5.65;;
52458;SDS011;38372;52.902;6.024;2022-08-02T04:55:01;10.52;;;5.45;;
52458;SDS011;38372;52.902;6.024;2022-08-02T04:57:27;11.52;;;6.00;;
52458;SDS011;38372;52.902;6.024;2022-08-02T05:00:11;9.25;;;4.95;;
52458;SDS011;38372;52.902;6.024;2022-08-02T05:02:37;10.80;;;4.97;;
52458;SDS011;38372;52.902;6.024;2022-08-02T05:05:03;8.32;;;5.00;;
52458;SDS011;38372;52.902;6.024;2022-08-02T05:07:30;11.05;;;5.03;;
52458;SDS011;38372;52.902;6.024;2022-08-02T05:09:55;12.93;;;5.30;;
52458;SDS011;38372;52.902;6.024;2022-08-02T05:12:21;12.77;;;5.57;;
52458;SDS011;38372;52.902;6.024;2022-08-02T05:14:48;8.60;;;5.05;;
52458;SDS011;38372;52.902;6.024;2022-08-02T05:17:14;8.48;;;4.82;;
52458;SDS011;38372;52.902;6.024;2022-08-02T05:19:40;9.93;;;5.25;;
52458;SDS011;38372;52.902;6.024;2022-08-02T05:22:06;10.77;;;5.05;;
52458;SDS011;38372;52.902;6.024;2022-08-02T05:24:32;9.88;;;4.57;;
52458;SDS011;38372;52.902;6.024;2022-08-02T05:26:58;9.15;;;4.10;;
52458;SDS011;38372;52.902;6.024;2022-08-02T05:29:24;9.55;;;4.80;;
52458;SDS011;38372;52.902;6.024;2022-08-02T05:31:50;10.30;;;4.97;;
52458;SDS011;38372;52.902;6.024;2022-08-02T05:34:16;11.50;;;4.40;;
52458;SDS011;38372;52.902;6.024;2022-08-02T05:36:41;9.45;;;4.72;;
52458;SDS011;38372;52.902;6.024;2022-08-02T05:39:07;10.73;;;4.15;;
52458;SDS011;38372;52.902;6.024;2022-08-02T05:41:33;12.98;;;4.80;;
52458;SDS011;38372;52.902;6.024;2022-08-02T05:43:59;10.48;;;4.40;;
52458;SDS011;38372;52.902;6.024;2022-08-02T05:46:25;9.00;;;4.50;;
52458;SDS011;38372;52.902;6.024;2022-08-02T05:48:51;9.40;;;4.78;;
52458;SDS011;38372;52.902;6.024;2022-08-02T05:51:28;13.27;;;4.70;;
52458;SDS011;38372;52.902;6.024;2022-08-02T05:54:04;13.63;;;5.78;;
52458;SDS011;38372;52.902;6.024;2022-08-02T05:56:55;9.60;;;4.45;;
52458;SDS011;38372;52.902;6.024;2022-08-02T06:00:12;8.82;;;4.55;;
52458;SDS011;38372;52.902;6.024;2022-08-02T06:05:28;9.95;;;4.47;;
52458;SDS011;38372;52.902;6.024;2022-08-02T06:07:58;12.07;;;4.40;;
52458;SDS011;38372;52.902;6.024;2022-08-02T06:10:25;11.38;;;4.43;;
52458;SDS011;38372;52.902;6.024;2022-08-02T06:15:36;7.15;;;3.50;;
52458;SDS011;38372;52.902;6.024;2022-08-02T06:18:03;10.68;;;4.05;;
52458;SDS011;38372;52.902;6.024;2022-08-02T06:20:30;8.23;;;4.28;;
52458;SDS011;38372;52.902;6.024;2022-08-02T06:23:06;7.03;;;3.45;;
52458;SDS011;38372;52.902;6.024;2022-08-02T06:25:34;6.85;;;4.00;;
52458;SDS011;38372;52.902;6.024;2022-08-02T06:28:04;7.25;;;3.70;;
52458;SDS011;38372;52.902;6.024;2022-08-02T06:30:31;7.72;;;3.50;;
52458;SDS011;38372;52.902;6.024;2022-08-02T06:32:57;7.82;;;3.58;;
52458;SDS011;38372;52.902;6.024;2022-08-02T06:35:26;8.98;;;3.72;;
52458;SDS011;38372;52.902;6.024;2022-08-02T06:38:17;7.78;;;3.78;;
52458;SDS011;38372;52.902;6.024;2022-08-02T06:46:31;7.60;;;3.35;;
52458;SDS011;38372;52.902;6.024;2022-08-02T06:48:58;9.65;;;2.80;;
52458;SDS011;38372;52.902;6.024;2022-08-02T06:51:25;6.10;;;2.53;;
52458;SDS011;38372;52.902;6.024;2022-08-02T06:53:52;8.00;;;3.10;;
52458;SDS011;38372;52.902;6.024;2022-08-02T06:56:18;8.70;;;3.42;;
52458;SDS011;38372;52.902;6.024;2022-08-02T06:58:46;6.18;;;2.70;;
52458;SDS011;38372;52.902;6.024;2022-08-02T07:01:11;5.75;;;2.38;;
52458;SDS011;38372;52.902;6.024;2022-08-02T07:03:38;6.53;;;3.03;;
52458;SDS011;38372;52.902;6.024;2022-08-02T07:06:05;5.85;;;3.00;;
52458;SDS011;38372;52.902;6.024;2022-08-02T07:11:03;7.43;;;2.40;;
52458;SDS011;38372;52.902;6.024;2022-08-02T07:13:29;7.60;;;2.83;;
52458;SDS011;38372;52.902;6.024;2022-08-02T07:15:55;5.18;;;2.50;;
52458;SDS011;38372;52.902;6.024;2022-08-02T07:18:22;8.18;;;2.60;;
52458;SDS011;38372;52.902;6.024;2022-08-02T07:20:49;5.88;;;3.28;;
52458;SDS011;38372;52.902;6.024;2022-08-02T07:23:15;5.93;;;2.50;;
52458;SDS011;38372;52.902;6.024;2022-08-02T07:25:42;5.00;;;2.35;;
52458;SDS011;38372;52.902;6.024;2022-08-02T07:28:09;7.70;;;2.92;;
52458;SDS011;38372;52.902;6.024;2022-08-02T07:30:35;6.03;;;2.42;;
52458;SDS011;38372;52.902;6.024;2022-08-02T07:33:03;7.97;;;2.65;;
52458;SDS011;38372;52.902;6.024;2022-08-02T07:35:29;11.00;;;3.38;;
52458;SDS011;38372;52.902;6.024;2022-08-02T07:37:55;6.03;;;2.25;;
52458;SDS011;38372;52.902;6.024;2022-08-02T07:40:21;5.18;;;2.63;;
52458;SDS011;38372;52.902;6.024;2022-08-02T07:42:48;9.15;;;2.25;;
52458;SDS011;38372;52.902;6.024;2022-08-02T07:45:17;4.90;;;2.08;;
52458;SDS011;38372;52.902;6.024;2022-08-02T07:47:46;3.50;;;2.08;;
52458;SDS011;38372;52.902;6.024;2022-08-02T07:50:12;8.20;;;2.05;;
52458;SDS011;38372;52.902;6.024;2022-08-02T07:52:41;7.72;;;2.17;;
52458;SDS011;38372;52.902;6.024;2022-08-02T07:55:08;5.75;;;2.47;;
52458;SDS011;38372;52.902;6.024;2022-08-02T07:57:36;6.70;;;2.40;;
52458;SDS011;38372;52.902;6.024;2022-08-02T08:00:05;5.97;;;1.75;;
52458;SDS011;38372;52.902;6.024;2022-08-02T08:02:32;5.75;;;2.08;;
52458;SDS011;38372;52.902;6.024;2022-08-02T08:04:58;4.50;;;1.73;;
52458;SDS011;38372;52.902;6.024;2022-08-02T08:07:24;4.80;;;1.85;;
52458;SDS011;38372;52.902;6.024;2022-08-02T08:09:50;5.40;;;2.00;;
52458;SDS011;38372;52.902;6.024;2022-08-02T08:12:16;5.45;;;2.60;;
52458;SDS011;38372;52.902;6.024;2022-08-02T08:14:42;5.15;;;2.30;;
52458;SDS011;38372;52.902;6.024;2022-08-02T08:17:09;5.40;;;2.03;;
52458;SDS011;38372;52.902;6.024;2022-08-02T08:19:35;5.05;;;2.60;;
52458;SDS011;38372;52.902;6.024;2022-08-02T08:22:00;5.15;;;2.42;;
52458;SDS011;38372;52.902;6.024;2022-08-02T08:24:27;6.97;;;2.38;;
52458;SDS011;38372;52.902;6.024;2022-08-02T08:26:53;5.00;;;2.40;;
52458;SDS011;38372;52.902;6.024;2022-08-02T08:29:20;6.65;;;2.63;;
52458;SDS011;38372;52.902;6.024;2022-08-02T08:31:47;5.63;;;2.60;;
52458;SDS011;38372;52.902;6.024;2022-08-02T08:34:13;6.60;;;2.97;;
52458;SDS011;38372;52.902;6.024;2022-08-02T08:36:39;5.50;;;2.33;;
52458;SDS011;38372;52.902;6.024;2022-08-02T08:39:05;5.07;;;2.47;;
52458;SDS011;38372;52.902;6.024;2022-08-02T08:41:31;7.00;;;2.40;;
52458;SDS011;38372;52.902;6.024;2022-08-02T08:43:57;6.95;;;2.58;;
52458;SDS011;38372;52.902;6.024;2022-08-02T08:46:28;8.35;;;2.90;;
52458;SDS011;38372;52.902;6.024;2022-08-02T08:48:59;5.13;;;2.72;;
52458;SDS011;38372;52.902;6.024;2022-08-02T08:51:29;6.85;;;2.65;;
52458;SDS011;38372;52.902;6.024;2022-08-02T08:54:01;7.15;;;2.55;;
52458;SDS011;38372;52.902;6.024;2022-08-02T08:56:28;5.47;;;2.50;;
52458;SDS011;38372;52.902;6.024;2022-08-02T08:58:57;8.75;;;3.28;;
52458;SDS011;38372;52.902;6.024;2022-08-02T09:01:23;7.15;;;3.33;;
52458;SDS011;38372;52.902;6.024;2022-08-02T09:03:49;4.38;;;2.67;;
52458;SDS011;38372;52.902;6.024;2022-08-02T09:06:15;8.68;;;2.88;;
52458;SDS011;38372;52.902;6.024;2022-08-02T09:08:41;5.20;;;3.00;;
52458;SDS011;38372;52.902;6.024;2022-08-02T09:11:11;7.97;;;2.55;;
52458;SDS011;38372;52.902;6.024;2022-08-02T09:13:39;9.52;;;3.15;;
52458;SDS011;38372;52.902;6.024;2022-08-02T09:16:31;6.95;;;2.65;;
52458;SDS011;38372;52.902;6.024;2022-08-02T09:21:48;8.43;;;3.05;;
52458;SDS011;38372;52.902;6.024;2022-08-02T09:27:10;7.18;;;3.47;;
52458;SDS011;38372;52.902;6.024;2022-08-02T09:29:37;6.68;;;3.08;;
52458;SDS011;38372;52.902;6.024;2022-08-02T09:32:03;7.97;;;3.30;;
52458;SDS011;38372;52.902;6.024;2022-08-02T09:34:45;7.35;;;3.67;;
52458;SDS011;38372;52.902;6.024;2022-08-02T09:37:29;5.57;;;3.47;;
52458;SDS011;38372;52.902;6.024;2022-08-02T09:42:24;5.88;;;2.97;;
52458;SDS011;38372;52.902;6.024;2022-08-02T09:47:20;9.50;;;3.70;;
52458;SDS011;38372;52.902;6.024;2022-08-02T09:49:46;7.47;;;3.50;;
52458;SDS011;38372;52.902;6.024;2022-08-02T09:52:12;5.93;;;3.42;;
52458;SDS011;38372;52.902;6.024;2022-08-02T09:54:39;5.55;;;3.80;;
52458;SDS011;38372;52.902;6.024;2022-08-02T09:57:05;5.75;;;3.40;;
52458;SDS011;38372;52.902;6.024;2022-08-02T09:59:31;6.90;;;3.28;;
52458;SDS011;38372;52.902;6.024;2022-08-02T10:01:58;8.00;;;3.67;;
52458;SDS011;38372;52.902;6.024;2022-08-02T10:04:26;5.25;;;3.75;;
52458;SDS011;38372;52.902;6.024;2022-08-02T10:06:56;6.70;;;4.30;;
52458;SDS011;38372;52.902;6.024;2022-08-02T10:09:23;7.60;;;3.95;;
52458;SDS011;38372;52.902;6.024;2022-08-02T10:11:50;7.15;;;3.83;;
52458;SDS011;38372;52.902;6.024;2022-08-02T10:14:16;5.10;;;3.83;;
52458;SDS011;38372;52.902;6.024;2022-08-02T10:16:44;7.25;;;3.92;;
52458;SDS011;38372;52.902;6.024;2022-08-02T10:19:10;5.95;;;4.07;;
52458;SDS011;38372;52.902;6.024;2022-08-02T10:21:43;5.28;;;4.03;;
52458;SDS011;38372;52.902;6.024;2022-08-02T10:24:20;5.03;;;3.92;;
52458;SDS011;38372;52.902;6.024;2022-08-02T10:26:48;5.55;;;3.70;;
52458;SDS011;38372;52.902;6.024;2022-08-02T10:29:14;8.07;;;4.63;;
52458;SDS011;38372;52.902;6.024;2022-08-02T10:31:49;5.45;;;3.67;;
52458;SDS011;38372;52.902;6.024;2022-08-02T10:34:20;4.20;;;3.60;;
52458;SDS011;38372;52.902;6.024;2022-08-02T10:36:48;7.88;;;4.50;;
52458;SDS011;38372;52.902;6.024;2022-08-02T10:39:16;7.07;;;4.63;;
52458;SDS011;38372;52.902;6.024;2022-08-02T10:41:42;6.95;;;5.60;;
52458;SDS011;38372;52.902;6.024;2022-08-02T10:44:19;7.88;;;5.35;;
52458;SDS011;38372;52.902;6.024;2022-08-02T10:46:47;8.48;;;5.85;;
52458;SDS011;38372;52.902;6.024;2022-08-02T10:49:13;8.40;;;6.03;;
52458;SDS011;38372;52.902;6.024;2022-08-02T10:54:27;10.80;;;7.53;;
52458;SDS011;38372;52.902;6.024;2022-08-02T10:57:03;10.45;;;6.45;;
52458;SDS011;38372;52.902;6.024;2022-08-02T10:59:44;9.07;;;6.70;;
52458;SDS011;38372;52.902;6.024;2022-08-02T11:02:11;9.68;;;6.63;;
52458;SDS011;38372;52.902;6.024;2022-08-02T11:09:35;11.60;;;6.43;;
52458;SDS011;38372;52.902;6.024;2022-08-02T11:14:42;9.00;;;6.82;;
52458;SDS011;38372;52.902;6.024;2022-08-02T11:17:14;10.18;;;6.28;;
52458;SDS011;38372;52.902;6.024;2022-08-02T11:22:34;10.40;;;6.95;;
52458;SDS011;38372;52.902;6.024;2022-08-02T11:27:52;9.73;;;6.20;;
52458;SDS011;38372;52.902;6.024;2022-08-02T11:30:21;7.90;;;5.93;;
52458;SDS011;38372;52.902;6.024;2022-08-02T11:32:48;9.18;;;6.18;;
52458;SDS011;38372;52.902;6.024;2022-08-02T11:35:15;9.45;;;7.40;;
52458;SDS011;38372;52.902;6.024;2022-08-02T11:37:43;8.70;;;6.05;;
52458;SDS011;38372;52.902;6.024;2022-08-02T11:40:10;8.73;;;7.20;;
52458;SDS011;38372;52.902;6.024;2022-08-02T11:42:40;8.43;;;5.50;;
52458;SDS011;38372;52.902;6.024;2022-08-02T11:45:13;10.52;;;6.15;;
52458;SDS011;38372;52.902;6.024;2022-08-02T11:47:53;7.75;;;6.53;;
52458;SDS011;38372;52.902;6.024;2022-08-02T11:50:20;7.45;;;5.03;;
52458;SDS011;38372;52.902;6.024;2022-08-02T11:52:49;7.57;;;4.60;;
52458;SDS011;38372;52.902;6.024;2022-08-02T11:55:17;7.80;;;4.70;;
52458;SDS011;38372;52.902;6.024;2022-08-02T11:57:58;5.57;;;4.28;;
52458;SDS011;38372;52.902;6.024;2022-08-02T12:00:25;7.82;;;4.93;;
52458;SDS011;38372;52.902;6.024;2022-08-02T12:02:51;8.45;;;5.63;;
52458;SDS011;38372;52.902;6.024;2022-08-02T12:05:17;6.85;;;5.75;;
52458;SDS011;38372;52.902;6.024;2022-08-02T12:07:45;7.85;;;5.28;;
52458;SDS011;38372;52.902;6.024;2022-08-02T12:10:15;6.70;;;5.50;;
52458;SDS011;38372;52.902;6.024;2022-08-02T12:12:48;7.50;;;5.00;;
52458;SDS011;38372;52.902;6.024;2022-08-02T12:15:33;7.38;;;5.45;;
52458;SDS011;38372;52.902;6.024;2022-08-02T12:18:02;9.05;;;5.70;;
52458;SDS011;38372;52.902;6.024;2022-08-02T12:20:51;12.07;;;7.30;;
52458;SDS011;38372;52.902;6.024;2022-08-02T12:23:17;10.43;;;6.88;;
52458;SDS011;38372;52.902;6.024;2022-08-02T12:25:43;11.23;;;7.28;;
52458;SDS011;38372;52.902;6.024;2022-08-02T12:28:16;11.25;;;6.88;;
52458;SDS011;38372;52.902;6.024;2022-08-02T12:33:48;10.52;;;8.65;;
52458;SDS011;38372;52.902;6.024;2022-08-02T12:36:20;11.13;;;9.32;;
52458;SDS011;38372;52.902;6.024;2022-08-02T12:41:17;14.68;;;10.52;;
52458;SDS011;38372;52.902;6.024;2022-08-02T12:43:43;12.40;;;10.02;;
52458;SDS011;38372;52.902;6.024;2022-08-02T12:46:16;15.77;;;10.90;;
52458;SDS011;38372;52.902;6.024;2022-08-02T12:48:43;15.57;;;11.75;;
52458;SDS011;38372;52.902;6.024;2022-08-02T12:51:24;14.00;;;11.02;;
52458;SDS011;38372;52.902;6.024;2022-08-02T12:53:53;14.73;;;10.63;;
52458;SDS011;38372;52.902;6.024;2022-08-02T12:56:25;13.00;;;10.68;;
52458;SDS011;38372;52.902;6.024;2022-08-02T12:58:53;13.25;;;10.35;;
52458;SDS011;38372;52.902;6.024;2022-08-02T13:01:19;12.57;;;10.15;;
52458;SDS011;38372;52.902;6.024;2022-08-02T13:03:46;12.90;;;10.05;;
52458;SDS011;38372;52.902;6.024;2022-08-02T13:06:12;14.30;;;10.48;;
52458;SDS011;38372;52.902;6.024;2022-08-02T13:08:39;11.25;;;9.52;;
52458;SDS011;38372;52.902;6.024;2022-08-02T13:11:04;11.68;;;9.30;;
52458;SDS011;38372;52.902;6.024;2022-08-02T13:13:31;13.43;;;9.50;;
52458;SDS011;38372;52.902;6.024;2022-08-02T13:15:57;10.63;;;8.32;;
52458;SDS011;38372;52.902;6.024;2022-08-02T13:18:23;9.85;;;8.18;;
52458;SDS011;38372;52.902;6.024;2022-08-02T13:20:48;12.35;;;8.75;;
52458;SDS011;38372;52.902;6.024;2022-08-02T13:23:14;12.60;;;9.13;;
52458;SDS011;38372;52.902;6.024;2022-08-02T13:25:41;12.35;;;8.32;;
52458;SDS011;38372;52.902;6.024;2022-08-02T13:28:07;10.73;;;8.20;;
52458;SDS011;38372;52.902;6.024;2022-08-02T13:30:33;11.52;;;8.73;;
52458;SDS011;38372;52.902;6.024;2022-08-02T13:32:59;11.73;;;7.45;;
52458;SDS011;38372;52.902;6.024;2022-08-02T13:35:24;9.00;;;6.93;;
52458;SDS011;38372;52.902;6.024;2022-08-02T13:37:50;10.02;;;7.20;;
52458;SDS011;38372;52.902;6.024;2022-08-02T13:40:16;10.07;;;7.13;;
52458;SDS011;38372;52.902;6.024;2022-08-02T13:42:42;8.18;;;6.43;;
52458;SDS011;38372;52.902;6.024;2022-08-02T13:45:08;9.25;;;7.20;;
52458;SDS011;38372;52.902;6.024;2022-08-02T13:47:36;8.57;;;6.78;;
52458;SDS011;38372;52.902;6.024;2022-08-02T13:50:03;7.40;;;6.57;;
52458;SDS011;38372;52.902;6.024;2022-08-02T13:52:32;9.23;;;5.80;;
52458;SDS011;38372;52.902;6.024;2022-08-02T13:54:58;11.02;;;6.03;;
52458;SDS011;38372;52.902;6.024;2022-08-02T13:57:24;7.70;;;5.80;;
52458;SDS011;38372;52.902;6.024;2022-08-02T13:59:50;7.68;;;6.57;;
52458;SDS011;38372;52.902;6.024;2022-08-02T14:02:16;8.27;;;5.57;;
52458;SDS011;38372;52.902;6.024;2022-08-02T14:04:42;8.23;;;6.10;;
52458;SDS011;38372;52.902;6.024;2022-08-02T14:07:08;8.18;;;5.97;;
52458;SDS011;38372;52.902;6.024;2022-08-02T14:09:33;11.32;;;6.53;;
52458;SDS011;38372;52.902;6.024;2022-08-02T14:12:03;8.20;;;6.13;;
52458;SDS011;38372;52.902;6.024;2022-08-02T14:18:13;11.98;;;5.95;;
52458;SDS011;38372;52.902;6.024;2022-08-02T14:20:40;7.22;;;5.70;;
52458;SDS011;38372;52.902;6.024;2022-08-02T14:23:06;9.02;;;6.00;;
52458;SDS011;38372;52.902;6.024;2022-08-02T14:25:32;8.80;;;6.32;;
52458;SDS011;38372;52.902;6.024;2022-08-02T14:27:58;7.35;;;5.50;;
52458;SDS011;38372;52.902;6.024;2022-08-02T14:30:23;7.57;;;5.20;;
52458;SDS011;38372;52.902;6.024;2022-08-02T14:32:49;7.15;;;5.70;;
52458;SDS011;38372;52.902;6.024;2022-08-02T14:35:15;8.40;;;5.65;;
52458;SDS011;38372;52.902;6.024;2022-08-02T14:37:41;8.10;;;5.00;;
52458;SDS011;38372;52.902;6.024;2022-08-02T14:40:07;7.95;;;5.35;;
52458;SDS011;38372;52.902;6.024;2022-08-02T14:42:33;10.05;;;5.70;;
52458;SDS011;38372;52.902;6.024;2022-08-02T14:44:59;6.47;;;4.80;;
52458;SDS011;38372;52.902;6.024;2022-08-02T14:47:25;7.07;;;4.57;;
52458;SDS011;38372;52.902;6.024;2022-08-02T14:49:51;9.02;;;5.20;;
52458;SDS011;38372;52.902;6.024;2022-08-02T14:52:17;7.43;;;4.40;;
52458;SDS011;38372;52.902;6.024;2022-08-02T14:54:43;10.82;;;5.38;;
52458;SDS011;38372;52.902;6.024;2022-08-02T14:57:09;6.50;;;4.47;;
52458;SDS011;38372;52.902;6.024;2022-08-02T14:59:35;6.82;;;4.85;;
52458;SDS011;38372;52.902;6.024;2022-08-02T15:02:01;7.53;;;4.72;;
52458;SDS011;38372;52.902;6.024;2022-08-02T15:04:27;5.32;;;4.25;;
52458;SDS011;38372;52.902;6.024;2022-08-02T15:06:53;11.07;;;5.30;;
52458;SDS011;38372;52.902;6.024;2022-08-02T15:09:19;9.68;;;4.50;;
52458;SDS011;38372;52.902;6.024;2022-08-02T15:11:46;9.32;;;4.93;;
52458;SDS011;38372;52.902;6.024;2022-08-02T15:14:11;9.63;;;5.40;;
52458;SDS011;38372;52.902;6.024;2022-08-02T15:16:37;7.82;;;4.35;;
52458;SDS011;38372;52.902;6.024;2022-08-02T15:19:04;7.53;;;4.40;;
52458;SDS011;38372;52.902;6.024;2022-08-02T15:21:30;8.73;;;4.47;;
52458;SDS011;38372;52.902;6.024;2022-08-02T15:23:56;8.93;;;4.03;;
52458;SDS011;38372;52.902;6.024;2022-08-02T15:26:22;5.30;;;4.10;;
52458;SDS011;38372;52.902;6.024;2022-08-02T15:28:49;7.10;;;4.10;;
52458;SDS011;38372;52.902;6.024;2022-08-02T15:31:15;8.55;;;5.05;;
52458;SDS011;38372;52.902;6.024;2022-08-02T15:33:41;8.55;;;4.75;;
52458;SDS011;38372;52.902;6.024;2022-08-02T15:36:10;8.18;;;5.15;;
52458;SDS011;38372;52.902;6.024;2022-08-02T15:38:36;7.63;;;3.90;;
52458;SDS011;38372;52.902;6.024;2022-08-02T15:41:05;5.82;;;4.10;;
52458;SDS011;38372;52.902;6.024;2022-08-02T15:43:34;7.30;;;4.35;;
52458;SDS011;38372;52.902;6.024;2022-08-02T15:46:01;8.30;;;5.07;;
52458;SDS011;38372;52.902;6.024;2022-08-02T15:48:28;6.53;;;4.43;;
52458;SDS011;38372;52.902;6.024;2022-08-02T15:50:54;6.25;;;3.95;;
52458;SDS011;38372;52.902;6.024;2022-08-02T15:53:22;8.05;;;4.15;;
52458;SDS011;38372;52.902;6.024;2022-08-02T15:55:48;6.10;;;4.22;;